Delta Billie — WDE8059 — position and weather

sailwx.info

Track history (hours):
 
Tides and Currents Weather Stations Pressure Air Temp Water Temp Dewpoint Dewpoint Depression Visibility Wind Speed Wind Dir Waves Ship Positions

Delta Billie

Owner: Baydelta Maritime, San Francicso, CA. More information available from US FCC via Universal Licensing System and Coast Guard Vessel Documentation Center.

Last reported at 2017-Mar-23 13:33 UTC. Time now 2017-Mar-23 14:09 UTC.
Position N 38°00' W 122°24'.

Length 30 m; draft 5.5 m.

Type: Towing. MMSI: 367401030.

Date/timePositionNaut miles runAvg speedWind from/ knotsBaromVisibWave heightAir tempDewpointWater temp
2017-Mar-23 13:33N 38°00' W 122°24'7 7.2
2017-Mar-23 12:33N 37°53' W 122°25'6 6.0
2017-Mar-23 11:34N 37°49' W 122°19'0 0.4
2017-Mar-23 10:33N 37°49' W 122°20'0 0.0
2017-Mar-23 09:33N 37°49' W 122°20'8 8.5
2017-Mar-23 08:33N 37°56' W 122°26'10 9.8
2017-Mar-23 07:32N 38°03' W 122°17'7 2.9
2017-Mar-23 05:16N 38°02' W 122°09'0 0.5
2017-Mar-23 04:33N 38°02' W 122°08'1 1.0
2017-Mar-23 03:11N 38°02' W 122°10'5 6.9
2017-Mar-23 02:28N 38°03' W 122°16'8 8.4
2017-Mar-23 01:33N 37°60' W 122°25'5 4.6
2017-Mar-23 00:33N 37°55' W 122°25'4 4.5
2017-Mar-22 23:33N 37°60' W 122°25'11 1.6
2017-Mar-22 16:15N 38°03' W 122°11'4 5.3
2017-Mar-22 15:33N 38°03' W 122°16'0 0.0
2017-Mar-22 14:33N 38°03' W 122°16'4 4.0
2017-Mar-22 13:33N 38°03' W 122°21'8 8.4
2017-Mar-22 12:33N 37°56' W 122°27'7 6.8
2017-Mar-22 11:33N 37°49' W 122°29'2 1.8
2017-Mar-22 10:33N 37°49' W 122°31'5 5.5
2017-Mar-22 09:33N 37°48' W 122°24'0 0.0
2017-Mar-22 08:33N 37°48' W 122°24'0 0.0
2017-Mar-22 07:33N 37°48' W 122°24'0 0.0
2017-Mar-22 06:33N 37°48' W 122°24'0 0.1
2017-Mar-22 05:33N 37°48' W 122°24'5 4.7
2017-Mar-22 04:34N 37°48' W 122°18'2 1.6
2017-Mar-22 03:33N 37°48' W 122°20'2 2.1
2017-Mar-22 02:33N 37°46' W 122°21'3 3.0
2017-Mar-22 01:33N 37°48' W 122°24'4 3.6
2017-Mar-22 00:33N 37°45' W 122°21'4 4.4
2017-Mar-21 23:33N 37°49' W 122°24'5 5.4
2017-Mar-21 22:33N 37°49' W 122°31'6 5.7
2017-Mar-21 21:33N 37°48' W 122°24'0 0.0
2017-Mar-21 20:33N 37°48' W 122°24'0 0.0
2017-Mar-21 19:33N 37°48' W 122°24'0 0.0
2017-Mar-21 18:33N 37°48' W 122°24'0 0.0
2017-Mar-21 17:33N 37°48' W 122°24'1 1.4
2017-Mar-21 16:33N 37°48' W 122°22'3 3.4
2017-Mar-21 15:33N 37°47' W 122°18'1 1.4
2017-Mar-21 14:33N 37°48' W 122°20'0 0.5
2017-Mar-21 13:33N 37°48' W 122°19'1 0.7
2017-Mar-21 12:34N 37°48' W 122°18'1 0.8
2017-Mar-21 11:33N 37°48' W 122°19'4 3.6
2017-Mar-21 10:33N 37°48' W 122°24'0 0.0
2017-Mar-21 09:33N 37°48' W 122°24'0 0.0
2017-Mar-21 08:33N 37°48' W 122°24'0 0.0
2017-Mar-21 07:33N 37°48' W 122°24'0 0.0
2017-Mar-21 06:33N 37°48' W 122°24'0 0.0
2017-Mar-21 05:33N 37°48' W 122°24'0 0.0
2017-Mar-21 04:33N 37°48' W 122°24'0 0.0
2017-Mar-21 03:33N 37°48' W 122°24'0 0.0
2017-Mar-21 02:33N 37°48' W 122°24'0 0.0
2017-Mar-21 01:33N 37°48' W 122°24'0 0.0
2017-Mar-21 00:33N 37°48' W 122°24'0 0.0
2017-Mar-20 23:33N 37°48' W 122°24'2 2.3
2017-Mar-20 22:33N 37°48' W 122°21'1 1.0
2017-Mar-20 21:33N 37°49' W 122°20'3 3.0
2017-Mar-20 20:33N 37°51' W 122°23'1010.1
2017-Mar-20 19:33N 38°01' W 122°24'9 2.9
2017-Mar-20 16:28N 38°04' W 122°13'9 8.9
2017-Mar-20 15:27N 38°01' W 122°24'8 9.1
2017-Mar-20 14:33N 37°52' W 122°24'7 6.6
2017-Mar-20 13:33N 37°48' W 122°19'3 3.2
2017-Mar-20 12:34N 37°48' W 122°23'1 1.1
2017-Mar-20 11:33N 37°48' W 122°24'0 0.0
2017-Mar-20 10:33N 37°48' W 122°24'0 0.0
2017-Mar-20 09:33N 37°48' W 122°24'1 0.9
2017-Mar-20 08:33N 37°48' W 122°23'2 1.8
2017-Mar-20 07:33N 37°48' W 122°21'0 0.0
2017-Mar-20 06:33N 37°48' W 122°21'2 2.1
2017-Mar-20 05:33N 37°46' W 122°22'8 8.3
2017-Mar-20 04:33N 37°54' W 122°26'9 9.4
2017-Mar-20 03:33N 38°02' W 122°21'10 8.1
2017-Mar-20 02:22N 38°02' W 122°09'3 0.2
2017-Mar-19 07:27N 38°04' W 122°13'8 8.8
2017-Mar-19 06:33N 38°02' W 122°23'9 9.1
2017-Mar-19 05:33N 37°53' W 122°25'5 4.5
2017-Mar-19 04:33N 37°48' W 122°24'0 0.0
2017-Mar-19 03:33N 37°48' W 122°24'0 0.0
2017-Mar-19 02:33N 37°48' W 122°24'0 0.0
2017-Mar-19 01:33N 37°48' W 122°24'0 0.0
2017-Mar-19 00:33N 37°48' W 122°24'0 0.0
2017-Mar-18 23:33N 37°48' W 122°24'7 7.1
2017-Mar-18 22:33N 37°55' W 122°25'0 0.3
2017-Mar-18 21:33N 37°55' W 122°25'0 0.4
2017-Mar-18 20:33N 37°55' W 122°25'0 0.3
2017-Mar-18 19:33N 37°56' W 122°25'8 7.9
2017-Mar-18 18:33N 38°03' W 122°21'10 2.4
2017-Mar-18 14:28N 38°03' W 122°08'0 0.0
2017-Mar-18 13:33N 38°03' W 122°08'0 0.0
2017-Mar-18 12:33N 38°03' W 122°08'0 0.0
2017-Mar-18 11:33N 38°03' W 122°08'2 1.7
2017-Mar-18 10:23N 38°03' W 122°05'2 0.2
2017-Mar-18 01:24N 38°03' W 122°08'0 0.1
2017-Mar-17 23:25N 38°02' W 122°08'2 0.4
2017-Mar-17 19:10N 38°03' W 122°06'0 0.0
2017-Mar-17 18:31N 38°03' W 122°06'2 0.5
2017-Mar-17 14:33N 38°02' W 122°08'1 0.2
2017-Mar-17 11:15N 38°02' W 122°08'1 0.9
2017-Mar-17 10:33N 38°02' W 122°08'1 0.6
2017-Mar-17 09:31N 38°03' W 122°08'0 0.0
2017-Mar-17 08:33N 38°03' W 122°08'0 0.0
2017-Mar-17 07:33N 38°03' W 122°08'0 0.0
2017-Mar-17 06:30N 38°03' W 122°08'0 0.0
2017-Mar-17 05:12N 38°03' W 122°08'0 0.0
2017-Mar-17 04:33N 38°03' W 122°08'4 4.0
2017-Mar-17 03:33N 38°04' W 122°13'8 8.3
2017-Mar-17 02:31N 38°01' W 122°23'8 8.1
2017-Mar-17 01:33N 37°53' W 122°25'6 6.3
2017-Mar-17 00:34N 37°49' W 122°20'1 0.8
2017-Mar-16 23:33N 37°48' W 122°20'3 2.8
2017-Mar-16 22:33N 37°48' W 122°24'0 0.0
2017-Mar-16 21:33N 37°48' W 122°24'0 0.0
2017-Mar-16 20:33N 37°48' W 122°24'0 0.0
2017-Mar-16 19:33N 37°48' W 122°24'0 0.0
2017-Mar-16 18:33N 37°48' W 122°24'0 0.0
2017-Mar-16 17:33N 37°48' W 122°24'0 0.0
2017-Mar-16 16:33N 37°48' W 122°24'0 0.0
2017-Mar-16 15:33N 37°48' W 122°24'0 0.0
2017-Mar-16 14:33N 37°48' W 122°24'0 0.0
2017-Mar-16 13:33N 37°48' W 122°24'0 0.1
2017-Mar-16 12:34N 37°48' W 122°24'3 3.4
2017-Mar-16 11:33N 37°49' W 122°20'1 1.4
2017-Mar-16 10:33N 37°48' W 122°18'2 1.8
2017-Mar-16 09:33N 37°48' W 122°21'3 2.6
2017-Mar-16 08:33N 37°48' W 122°24'0 0.0
2017-Mar-16 07:33N 37°48' W 122°24'0 0.0
2017-Mar-16 06:33N 37°48' W 122°24'0 0.0
2017-Mar-16 05:33N 37°48' W 122°24'3 2.9
2017-Mar-16 04:33N 37°49' W 122°20'3 2.9
2017-Mar-16 03:33N 37°48' W 122°24'0 0.0
2017-Mar-16 02:33N 37°48' W 122°24'0 0.0
2017-Mar-16 01:33N 37°48' W 122°24'0 0.0
2017-Mar-16 00:33N 37°48' W 122°24'0 0.0
2017-Mar-15 23:33N 37°48' W 122°24'0 0.0
2017-Mar-15 22:33N 37°48' W 122°24'0 0.4
2017-Mar-15 21:34N 37°48' W 122°24'9 9.4
2017-Mar-15 20:33N 37°58' W 122°26'9 8.9
2017-Mar-15 19:33N 38°03' W 122°17'7 3.3
2017-Mar-15 17:21N 38°03' W 122°08'0 0.0
2017-Mar-15 16:33N 38°03' W 122°08'0 0.0
2017-Mar-15 15:29N 38°03' W 122°08'0 0.0
2017-Mar-15 13:33N 38°03' W 122°08'0 0.0
2017-Mar-15 12:33N 38°03' W 122°08'0 0.0
2017-Mar-15 11:10N 38°03' W 122°08'6 0.7
2017-Mar-15 01:29N 38°03' W 122°16'8 9.0
2017-Mar-15 00:33N 37°59' W 122°25'9 9.5
2017-Mar-14 23:33N 37°50' W 122°24'5 5.0
2017-Mar-14 22:33N 37°48' W 122°19'1 1.0
2017-Mar-14 21:34N 37°48' W 122°17'4 4.1
2017-Mar-14 20:33N 37°48' W 122°22'1 1.2
2017-Mar-14 19:33N 37°48' W 122°24'0 0.0
2017-Mar-14 18:33N 37°48' W 122°24'6 6.2
2017-Mar-14 17:33N 37°54' W 122°25'1 1.2
2017-Mar-14 16:33N 37°55' W 122°25'0 0.1
2017-Mar-14 15:33N 37°55' W 122°25'0 0.0
2017-Mar-14 14:33N 37°55' W 122°25'3 3.2
2017-Mar-14 13:33N 37°52' W 122°26'5 4.6
2017-Mar-14 12:33N 37°49' W 122°30'9 8.5
2017-Mar-14 11:32N 37°57' W 122°27'9 9.2
2017-Mar-14 10:33N 38°03' W 122°18'8 7.3
2017-Mar-14 09:31N 38°02' W 122°09'3 3.0
2017-Mar-14 08:33N 38°03' W 122°05'2 0.1
2017-Mar-13 16:27N 38°02' W 122°08'7 2.4
2017-Mar-13 13:33N 38°03' W 122°17'  
Track history (hours):
 
Tides and Currents Weather Stations Pressure Air Temp Water Temp Dewpoint Dewpoint Depression Visibility Wind Speed Wind Dir Waves Ship Positions

Delta Billie

Owner: Baydelta Maritime, San Francicso, CA. More information available from US FCC via Universal Licensing System and Coast Guard Vessel Documentation Center.

Last reported at 2017-Mar-23 13:33 UTC. Time now 2017-Mar-23 14:09 UTC.
Position N 38°00' W 122°24'.

Length 30 m; draft 5.5 m.

Type: Towing. MMSI: 367401030.

Date/timePositionNaut miles runAvg speedWind from/ knotsBaromVisibWave heightAir tempDewpointWater temp
2017-Mar-23 13:33N 38°00' W 122°24'7 7.2
2017-Mar-23 12:33N 37°53' W 122°25'6 6.0
2017-Mar-23 11:34N 37°49' W 122°19'0 0.4
2017-Mar-23 10:33N 37°49' W 122°20'0 0.0
2017-Mar-23 09:33N 37°49' W 122°20'8 8.5
2017-Mar-23 08:33N 37°56' W 122°26'10 9.8
2017-Mar-23 07:32N 38°03' W 122°17'7 2.9
2017-Mar-23 05:16N 38°02' W 122°09'0 0.5
2017-Mar-23 04:33N 38°02' W 122°08'1 1.0
2017-Mar-23 03:11N 38°02' W 122°10'5 6.9
2017-Mar-23 02:28N 38°03' W 122°16'8 8.4
2017-Mar-23 01:33N 37°60' W 122°25'5 4.6
2017-Mar-23 00:33N 37°55' W 122°25'4 4.5
2017-Mar-22 23:33N 37°60' W 122°25'11 1.6
2017-Mar-22 16:15N 38°03' W 122°11'4 5.3
2017-Mar-22 15:33N 38°03' W 122°16'0 0.0
2017-Mar-22 14:33N 38°03' W 122°16'4 4.0
2017-Mar-22 13:33N 38°03' W 122°21'8 8.4
2017-Mar-22 12:33N 37°56' W 122°27'7 6.8
2017-Mar-22 11:33N 37°49' W 122°29'2 1.8
2017-Mar-22 10:33N 37°49' W 122°31'5 5.5
2017-Mar-22 09:33N 37°48' W 122°24'0 0.0
2017-Mar-22 08:33N 37°48' W 122°24'0 0.0
2017-Mar-22 07:33N 37°48' W 122°24'0 0.0
2017-Mar-22 06:33N 37°48' W 122°24'0 0.1
2017-Mar-22 05:33N 37°48' W 122°24'5 4.7
2017-Mar-22 04:34N 37°48' W 122°18'2 1.6
2017-Mar-22 03:33N 37°48' W 122°20'2 2.1
2017-Mar-22 02:33N 37°46' W 122°21'3 3.0
2017-Mar-22 01:33N 37°48' W 122°24'4 3.6
2017-Mar-22 00:33N 37°45' W 122°21'4 4.4
2017-Mar-21 23:33N 37°49' W 122°24'5 5.4
2017-Mar-21 22:33N 37°49' W 122°31'6 5.7
2017-Mar-21 21:33N 37°48' W 122°24'0 0.0
2017-Mar-21 20:33N 37°48' W 122°24'0 0.0
2017-Mar-21 19:33N 37°48' W 122°24'0 0.0
2017-Mar-21 18:33N 37°48' W 122°24'0 0.0
2017-Mar-21 17:33N 37°48' W 122°24'1 1.4
2017-Mar-21 16:33N 37°48' W 122°22'3 3.4
2017-Mar-21 15:33N 37°47' W 122°18'1 1.4
2017-Mar-21 14:33N 37°48' W 122°20'0 0.5
2017-Mar-21 13:33N 37°48' W 122°19'1 0.7
2017-Mar-21 12:34N 37°48' W 122°18'1 0.8
2017-Mar-21 11:33N 37°48' W 122°19'4 3.6
2017-Mar-21 10:33N 37°48' W 122°24'0 0.0
2017-Mar-21 09:33N 37°48' W 122°24'0 0.0
2017-Mar-21 08:33N 37°48' W 122°24'0 0.0
2017-Mar-21 07:33N 37°48' W 122°24'0 0.0
2017-Mar-21 06:33N 37°48' W 122°24'0 0.0
2017-Mar-21 05:33N 37°48' W 122°24'0 0.0
2017-Mar-21 04:33N 37°48' W 122°24'0 0.0
2017-Mar-21 03:33N 37°48' W 122°24'0 0.0
2017-Mar-21 02:33N 37°48' W 122°24'0 0.0
2017-Mar-21 01:33N 37°48' W 122°24'0 0.0
2017-Mar-21 00:33N 37°48' W 122°24'0 0.0
2017-Mar-20 23:33N 37°48' W 122°24'2 2.3
2017-Mar-20 22:33N 37°48' W 122°21'1 1.0
2017-Mar-20 21:33N 37°49' W 122°20'3 3.0
2017-Mar-20 20:33N 37°51' W 122°23'1010.1
2017-Mar-20 19:33N 38°01' W 122°24'9 2.9
2017-Mar-20 16:28N 38°04' W 122°13'9 8.9
2017-Mar-20 15:27N 38°01' W 122°24'8 9.1
2017-Mar-20 14:33N 37°52' W 122°24'7 6.6
2017-Mar-20 13:33N 37°48' W 122°19'3 3.2
2017-Mar-20 12:34N 37°48' W 122°23'1 1.1
2017-Mar-20 11:33N 37°48' W 122°24'0 0.0
2017-Mar-20 10:33N 37°48' W 122°24'0 0.0
2017-Mar-20 09:33N 37°48' W 122°24'1 0.9
2017-Mar-20 08:33N 37°48' W 122°23'2 1.8
2017-Mar-20 07:33N 37°48' W 122°21'0 0.0
2017-Mar-20 06:33N 37°48' W 122°21'2 2.1
2017-Mar-20 05:33N 37°46' W 122°22'8 8.3
2017-Mar-20 04:33N 37°54' W 122°26'9 9.4
2017-Mar-20 03:33N 38°02' W 122°21'10 8.1
2017-Mar-20 02:22N 38°02' W 122°09'3 0.2
2017-Mar-19 07:27N 38°04' W 122°13'8 8.8
2017-Mar-19 06:33N 38°02' W 122°23'9 9.1
2017-Mar-19 05:33N 37°53' W 122°25'5 4.5
2017-Mar-19 04:33N 37°48' W 122°24'0 0.0
2017-Mar-19 03:33N 37°48' W 122°24'0 0.0
2017-Mar-19 02:33N 37°48' W 122°24'0 0.0
2017-Mar-19 01:33N 37°48' W 122°24'0 0.0
2017-Mar-19 00:33N 37°48' W 122°24'0 0.0
2017-Mar-18 23:33N 37°48' W 122°24'7 7.1
2017-Mar-18 22:33N 37°55' W 122°25'0 0.3
2017-Mar-18 21:33N 37°55' W 122°25'0 0.4
2017-Mar-18 20:33N 37°55' W 122°25'0 0.3
2017-Mar-18 19:33N 37°56' W 122°25'8 7.9
2017-Mar-18 18:33N 38°03' W 122°21'10 2.4
2017-Mar-18 14:28N 38°03' W 122°08'0 0.0
2017-Mar-18 13:33N 38°03' W 122°08'0 0.0
2017-Mar-18 12:33N 38°03' W 122°08'0 0.0
2017-Mar-18 11:33N 38°03' W 122°08'2 1.7
2017-Mar-18 10:23N 38°03' W 122°05'2 0.2
2017-Mar-18 01:24N 38°03' W 122°08'0 0.1
2017-Mar-17 23:25N 38°02' W 122°08'2 0.4
2017-Mar-17 19:10N 38°03' W 122°06'0 0.0
2017-Mar-17 18:31N 38°03' W 122°06'2 0.5
2017-Mar-17 14:33N 38°02' W 122°08'1 0.2
2017-Mar-17 11:15N 38°02' W 122°08'1 0.9
2017-Mar-17 10:33N 38°02' W 122°08'1 0.6
2017-Mar-17 09:31N 38°03' W 122°08'0 0.0
2017-Mar-17 08:33N 38°03' W 122°08'0 0.0
2017-Mar-17 07:33N 38°03' W 122°08'0 0.0
2017-Mar-17 06:30N 38°03' W 122°08'0 0.0
2017-Mar-17 05:12N 38°03' W 122°08'0 0.0
2017-Mar-17 04:33N 38°03' W 122°08'4 4.0
2017-Mar-17 03:33N 38°04' W 122°13'8 8.3
2017-Mar-17 02:31N 38°01' W 122°23'8 8.1
2017-Mar-17 01:33N 37°53' W 122°25'6 6.3
2017-Mar-17 00:34N 37°49' W 122°20'1 0.8
2017-Mar-16 23:33N 37°48' W 122°20'3 2.8
2017-Mar-16 22:33N 37°48' W 122°24'0 0.0
2017-Mar-16 21:33N 37°48' W 122°24'0 0.0
2017-Mar-16 20:33N 37°48' W 122°24'0 0.0
2017-Mar-16 19:33N 37°48' W 122°24'0 0.0
2017-Mar-16 18:33N 37°48' W 122°24'0 0.0
2017-Mar-16 17:33N 37°48' W 122°24'0 0.0
2017-Mar-16 16:33N 37°48' W 122°24'0 0.0
2017-Mar-16 15:33N 37°48' W 122°24'0 0.0
2017-Mar-16 14:33N 37°48' W 122°24'0 0.0
2017-Mar-16 13:33N 37°48' W 122°24'0 0.1
2017-Mar-16 12:34N 37°48' W 122°24'3 3.4
2017-Mar-16 11:33N 37°49' W 122°20'1 1.4
2017-Mar-16 10:33N 37°48' W 122°18'2 1.8
2017-Mar-16 09:33N 37°48' W 122°21'3 2.6
2017-Mar-16 08:33N 37°48' W 122°24'0 0.0
2017-Mar-16 07:33N 37°48' W 122°24'0 0.0
2017-Mar-16 06:33N 37°48' W 122°24'0 0.0
2017-Mar-16 05:33N 37°48' W 122°24'3 2.9
2017-Mar-16 04:33N 37°49' W 122°20'3 2.9
2017-Mar-16 03:33N 37°48' W 122°24'0 0.0
2017-Mar-16 02:33N 37°48' W 122°24'0 0.0
2017-Mar-16 01:33N 37°48' W 122°24'0 0.0
2017-Mar-16 00:33N 37°48' W 122°24'0 0.0
2017-Mar-15 23:33N 37°48' W 122°24'0 0.0
2017-Mar-15 22:33N 37°48' W 122°24'0 0.4
2017-Mar-15 21:34N 37°48' W 122°24'9 9.4
2017-Mar-15 20:33N 37°58' W 122°26'9 8.9
2017-Mar-15 19:33N 38°03' W 122°17'7 3.3
2017-Mar-15 17:21N 38°03' W 122°08'0 0.0
2017-Mar-15 16:33N 38°03' W 122°08'0 0.0
2017-Mar-15 15:29N 38°03' W 122°08'0 0.0
2017-Mar-15 13:33N 38°03' W 122°08'0 0.0
2017-Mar-15 12:33N 38°03' W 122°08'0 0.0
2017-Mar-15 11:10N 38°03' W 122°08'6 0.7
2017-Mar-15 01:29N 38°03' W 122°16'8 9.0
2017-Mar-15 00:33N 37°59' W 122°25'9 9.5
2017-Mar-14 23:33N 37°50' W 122°24'5 5.0
2017-Mar-14 22:33N 37°48' W 122°19'1 1.0
2017-Mar-14 21:34N 37°48' W 122°17'4 4.1
2017-Mar-14 20:33N 37°48' W 122°22'1 1.2
2017-Mar-14 19:33N 37°48' W 122°24'0 0.0
2017-Mar-14 18:33N 37°48' W 122°24'6 6.2
2017-Mar-14 17:33N 37°54' W 122°25'1 1.2
2017-Mar-14 16:33N 37°55' W 122°25'0 0.1
2017-Mar-14 15:33N 37°55' W 122°25'0 0.0
2017-Mar-14 14:33N 37°55' W 122°25'3 3.2
2017-Mar-14 13:33N 37°52' W 122°26'5 4.6
2017-Mar-14 12:33N 37°49' W 122°30'9 8.5
2017-Mar-14 11:32N 37°57' W 122°27'9 9.2
2017-Mar-14 10:33N 38°03' W 122°18'8 7.3
2017-Mar-14 09:31N 38°02' W 122°09'3 3.0
2017-Mar-14 08:33N 38°03' W 122°05'2 0.1
2017-Mar-13 16:27N 38°02' W 122°08'7 2.4
2017-Mar-13 13:33N 38°03' W 122°17'  

Dump ship's entire track history